Main page
METAR-TAF:

METAR-TAF

Airports :

Albrook "Marcos A. Gelabert" International Airport

Panama City, Panama

latitude: 08-59N, longitude: 079-31W, elevation: 13 m

Current weather observation

The report was made 5 minutes ago, at 13:00 UTC
Wind 7 kt from the North/Northwest
Temperature 27°C
Humidity 79%
Pressure 1011 hPa
Visibility: 8000 m
Scattered clouds at a height of 1800 ft

METAR: MPMG 051300Z 34007KT 8000 SCT018 27/23 Q1011 NOSIG

Time: 08:05 (13:05 UTC)

Forecast

The report was made 2 hours and 5 minutes ago, at 11:00 UTC
Forecast valid from 05 at 12 UTC to 05 at 24 UTC
Wind 8 kt from the North
Visibility 10 km or more
Scattered clouds at a height of 1800 ft
Temporary
from 05 at 17 UTC to 05 at 19 UTC
Wind 6 kt from the South

TAF: MPMG 051100Z 0512/0524 35008KT 9999 SCT018 TEMPO 0517/0519 17006KT

Weather observations and forecasts of more than 4000 airports (METAR and TAF reports).

The available stations are represented by yellow and red dots on the map.

Hover mouse over dot to see the name of the station.

Then click to see weather observations and forecasts.

To change the map : click on the green buttons with a black cross to zoom in, on the green button with a dash to zoom out, or on the green arrows for adjacent maps.


METAR-TAF: